Time;durP1;ratioP1;P1;durP2;ratioP2;P2;SDS_P1;SDS_P2;PMS_P1;PMS_P2;Temp;Humidity;BMP_temperature;BMP_pressure;BME280_temperature;BME280_humidity;BME280_pressure;Samples;Min_cycle;Max_cycle;Signal;HPM_P1;HPM_P2
2021/08/08 00:00:13;;;;;;;6.70;2.35;;;;;;;18.16;73.50;100105.75;5032425;28;20045;-63
2021/08/08 00:02:42;;;;;;;5.47;1.92;;;;;;;18.20;73.45;100100.34;5031375;28;20486;-63
2021/08/08 00:05:12;;;;;;;4.13;1.85;;;;;;;18.18;73.47;100097.13;5032220;28;20492;-63
2021/08/08 00:07:40;;;;;;;5.90;1.90;;;;;;;18.20;73.38;100101.16;5033294;28;20076;-62
2021/08/08 00:10:10;;;;;;;8.50;2.50;;;;;;;18.18;73.55;100110.91;5032961;28;20546;-62
2021/08/08 00:12:40;;;;;;;8.70;3.10;;;;;;;18.25;73.08;100111.19;5032527;28;20045;-63
2021/08/08 00:15:11;;;;;;;6.25;2.55;;;;;;;18.24;72.88;100112.34;5032735;28;20045;-63
2021/08/08 00:17:39;;;;;;;5.30;2.08;;;;;;;18.22;73.11;100109.09;5032065;28;20073;-62
2021/08/08 00:20:07;;;;;;;5.55;1.92;;;;;;;18.18;73.34;100117.22;5032577;28;20037;-62
2021/08/08 00:22:35;;;;;;;7.68;2.60;;;;;;;18.15;73.57;100119.88;5043891;28;20107;-63
2021/08/08 00:25:04;;;;;;;6.57;2.40;;;;;;;18.12;73.76;100121.34;5046610;28;20117;-63
2021/08/08 00:27:33;;;;;;;5.57;2.20;;;;;;;18.12;73.58;100121.34;5031914;28;20047;-62
2021/08/08 00:30:07;;;;;;;5.65;2.22;;;;;;;18.10;73.78;100131.91;5032023;28;20049;-62
2021/08/08 00:32:38;;;;;;;3.90;1.85;;;;;;;18.18;73.59;100119.97;5031998;28;20045;-63
2021/08/08 00:35:09;;;;;;;8.07;2.45;;;;;;;18.17;73.67;100123.91;5048784;28;20045;-62
2021/08/08 00:37:37;;;;;;;4.78;2.47;;;;;;;18.13;73.61;100122.94;5050982;28;20040;-63
2021/08/08 00:40:06;;;;;;;9.27;2.85;;;;;;;18.09;73.62;100127.53;5047127;28;20065;-63
2021/08/08 00:42:34;;;;;;;8.13;2.70;;;;;;;18.03;74.25;100132.44;5030489;28;20084;-62
2021/08/08 00:45:02;;;;;;;8.90;2.75;;;;;;;18.01;73.98;100126.44;5032342;28;20144;-62
2021/08/08 00:47:30;;;;;;;7.40;2.80;;;;;;;18.02;74.49;100138.28;5034886;28;20508;-62
2021/08/08 00:49:58;;;;;;;8.32;2.95;;;;;;;17.97;74.57;100135.75;5034755;28;20500;-63
2021/08/08 00:52:27;;;;;;;5.65;2.28;;;;;;;17.99;74.45;100133.44;5034701;28;20120;-62
2021/08/08 00:54:55;;;;;;;9.20;3.05;;;;;;;17.93;75.24;100134.78;5034535;28;20053;-63
2021/08/08 00:57:23;;;;;;;7.00;2.55;;;;;;;17.94;75.00;100141.91;5034254;28;20064;-62
2021/08/08 00:59:51;;;;;;;8.30;2.47;;;;;;;17.96;74.69;100140.41;5034396;28;20049;-62
2021/08/08 01:02:21;;;;;;;7.88;3.20;;;;;;;17.93;74.63;100148.56;5038916;28;20056;-62
2021/08/08 01:04:56;;;;;;;8.43;2.70;;;;;;;17.91;74.66;100153.59;5043410;28;20075;-62
2021/08/08 01:07:28;;;;;;;7.32;2.42;;;;;;;17.84;75.21;100149.41;5038750;28;20544;-63
2021/08/08 01:10:00;;;;;;;8.57;2.85;;;;;;;17.94;74.75;100155.69;5034630;28;20099;-62
2021/08/08 01:12:33;;;;;;;6.57;2.33;;;;;;;17.90;74.61;100157.50;5032548;28;20033;-62
2021/08/08 01:15:00;;;;;;;9.38;3.00;;;;;;;18.00;74.38;100168.13;5034371;28;20128;-62
2021/08/08 01:17:29;;;;;;;8.18;2.75;;;;;;;17.91;74.50;100172.88;5034466;28;20037;-61
2021/08/08 01:20:07;;;;;;;8.50;3.00;;;;;;;17.89;74.31;100173.22;5034526;28;20507;-62
2021/08/08 01:22:49;;;;;;;9.15;2.92;;;;;;;17.91;74.66;100170.13;5054314;28;20049;-59
2021/08/08 01:25:18;;;;;;;7.82;2.88;;;;;;;17.98;73.90;100176.72;5042631;28;20091;-62
2021/08/08 01:27:46;;;;;;;7.82;3.00;;;;;;;17.89;74.39;100173.22;5037893;28;20151;-60
2021/08/08 01:30:18;;;;;;;8.18;2.88;;;;;;;17.86;74.51;100166.41;5035024;28;20442;-62
2021/08/08 01:32:46;;;;;;;9.93;3.30;;;;;;;17.92;74.29;100183.59;5017675;28;20099;-59
2021/08/08 01:35:14;;;;;;;9.82;3.72;;;;;;;17.83;74.76;100180.88;5033874;28;20069;-63
2021/08/08 01:37:43;;;;;;;10.40;3.17;;;;;;;17.83;74.80;100189.16;5047647;28;20112;-63
2021/08/08 01:40:24;;;;;;;13.43;3.70;;;;;;;17.76;74.67;100201.78;5033498;28;20049;-63
2021/08/08 01:42:56;;;;;;;6.68;2.80;;;;;;;17.71;74.87;100191.78;5033866;28;20416;-62
2021/08/08 01:45:24;;;;;;;12.57;3.75;;;;;;;17.74;74.68;100199.38;5031608;28;20065;-63
2021/08/08 01:47:59;;;;;;;10.73;3.38;;;;;;;17.76;74.29;100202.59;5028945;28;20091;-63
2021/08/08 01:50:31;;;;;;;8.80;3.08;;;;;;;17.75;74.76;100203.75;5034794;28;20396;-62
2021/08/08 01:53:02;;;;;;;13.20;3.40;;;;;;;17.79;74.34;100204.69;5033770;28;20057;-62
2021/08/08 01:55:32;;;;;;;13.10;3.60;;;;;;;17.78;74.06;100214.09;5033894;28;20404;-63
2021/08/08 01:58:06;;;;;;;14.23;3.53;;;;;;;17.82;73.95;100211.50;5026000;28;20057;-62
2021/08/08 02:00:35;;;;;;;14.70;3.95;;;;;;;17.79;74.06;100210.19;5051313;28;20095;-62
2021/08/08 02:03:16;;;;;;;15.13;3.75;;;;;;;17.77;74.02;100219.94;5043413;28;20045;-62
2021/08/08 02:05:49;;;;;;;12.45;3.20;;;;;;;17.67;74.18;100216.41;5033244;28;20041;-62
2021/08/08 02:08:20;;;;;;;13.93;3.42;;;;;;;17.76;74.36;100219.13;5038571;28;20061;-62
2021/08/08 02:11:03;;;;;;;9.63;3.30;;;;;;;17.78;74.03;100219.63;5033276;28;20037;-63
2021/08/08 02:13:43;;;;;;;7.60;2.90;;;;;;;17.80;74.04;100219.28;5034789;28;20114;-63
2021/08/08 02:16:10;;;;;;;13.35;3.40;;;;;;;17.82;73.79;100223.38;5033153;28;20042;-62
2021/08/08 02:18:38;;;;;;;15.00;3.60;;;;;;;17.71;73.80;100230.34;5047420;28;20411;-62
2021/08/08 02:21:08;;;;;;;10.15;2.90;;;;;;;17.67;73.83;100232.13;5053038;28;20061;-63
2021/08/08 02:23:37;;;;;;;13.98;3.55;;;;;;;17.63;73.96;100232.00;5052819;28;20036;-62
2021/08/08 02:26:06;;;;;;;12.65;3.53;;;;;;;17.59;74.08;100239.31;5033329;28;20143;-62
2021/08/08 02:28:37;;;;;;;16.30;3.88;;;;;;;17.55;74.21;100241.09;5029431;28;20087;-62
2021/08/08 02:31:05;;;;;;;17.48;4.03;;;;;;;17.63;73.79;100243.03;5036365;28;20064;-62
2021/08/08 02:33:33;;;;;;;6.55;2.55;;;;;;;17.61;73.96;100245.28;5052964;28;20041;-62
2021/08/08 02:36:03;;;;;;;14.15;4.22;;;;;;;17.64;73.76;100250.13;5052620;28;20041;-62
2021/08/08 02:38:34;;;;;;;14.60;4.28;;;;;;;17.61;73.76;100244.50;5052443;28;20535;-63
2021/08/08 02:41:03;;;;;;;10.52;2.90;;;;;;;17.63;73.86;100255.97;5050070;28;20084;-62
2021/08/08 02:43:32;;;;;;;9.52;2.95;;;;;;;17.61;73.57;100261.03;5032914;28;20088;-62
2021/08/08 02:45:59;;;;;;;8.68;2.78;;;;;;;17.67;73.85;100262.44;5032756;28;20045;-63
2021/08/08 02:48:27;;;;;;;13.00;3.67;;;;;;;17.58;73.27;100262.50;5034088;28;20042;-62
2021/08/08 02:50:56;;;;;;;10.75;3.13;;;;;;;17.54;73.41;100268.97;5032413;28;20519;-62
2021/08/08 02:53:24;;;;;;;13.38;3.88;;;;;;;17.58;73.12;100275.44;5035813;28;20458;-63
2021/08/08 02:55:52;;;;;;;14.75;4.07;;;;;;;17.55;73.26;100278.84;5052723;28;20040;-62
2021/08/08 02:58:20;;;;;;;13.15;3.45;;;;;;;17.57;73.31;100287.59;5053590;28;20048;-63
2021/08/08 03:00:48;;;;;;;15.32;3.63;;;;;;;17.56;73.37;100286.00;5052381;28;20119;-63
2021/08/08 03:03:16;;;;;;;11.30;3.45;;;;;;;17.53;73.15;100292.94;5053351;28;20123;-63
2021/08/08 03:05:43;;;;;;;12.65;3.95;;;;;;;17.55;73.41;100289.88;5050903;28;20047;-62
2021/08/08 03:08:15;;;;;;;10.30;3.53;;;;;;;17.45;72.79;100291.81;5051982;28;20515;-63
2021/08/08 03:10:43;;;;;;;10.35;3.25;;;;;;;17.45;72.99;100294.59;5053607;28;20047;-63
2021/08/08 03:13:11;;;;;;;10.25;3.38;;;;;;;17.48;73.06;100303.34;5051845;28;20570;-63
2021/08/08 03:15:41;;;;;;;11.88;3.90;;;;;;;17.48;73.02;100295.88;5045864;28;20042;-63
2021/08/08 03:18:09;;;;;;;12.13;3.47;;;;;;;17.52;73.23;100307.88;5032413;28;20050;-63
2021/08/08 03:20:38;;;;;;;13.00;3.20;;;;;;;17.59;72.28;100310.13;5031340;28;20041;-63
2021/08/08 03:23:05;;;;;;;12.27;3.38;;;;;;;17.56;72.39;100302.53;5032306;28;20072;-63
2021/08/08 03:25:33;;;;;;;12.88;3.75;;;;;;;17.48;72.03;100311.59;5049372;28;20099;-62
2021/08/08 03:28:01;;;;;;;18.55;4.43;;;;;;;17.49;72.73;100308.53;5051706;28;20128;-63
2021/08/08 03:30:29;;;;;;;10.80;3.28;;;;;;;17.50;73.07;100314.84;5051615;28;20072;-62
2021/08/08 03:32:57;;;;;;;8.82;3.10;;;;;;;17.55;73.38;100317.41;5051727;28;20041;-62
2021/08/08 03:35:25;;;;;;;10.38;3.38;;;;;;;17.42;72.06;100322.78;5050983;28;20040;-62
2021/08/08 03:37:53;;;;;;;16.92;3.92;;;;;;;17.32;72.49;100317.63;5035540;28;20124;-63
2021/08/08 03:40:22;;;;;;;8.32;2.78;;;;;;;17.36;73.93;100315.00;5034792;28;20077;-62
2021/08/08 03:42:50;;;;;;;14.63;3.53;;;;;;;17.40;72.50;100327.00;5051626;28;20037;-62
2021/08/08 03:45:19;;;;;;;11.82;3.88;;;;;;;17.38;72.53;100327.31;5051778;28;20566;-61
2021/08/08 03:47:47;;;;;;;14.70;3.80;;;;;;;17.35;72.62;100336.25;5051474;28;20768;-62
2021/08/08 03:50:15;;;;;;;9.02;2.92;;;;;;;17.32;72.33;100333.31;5052557;28;20055;-62
2021/08/08 03:52:42;;;;;;;11.10;3.22;;;;;;;17.44;71.93;100348.06;5051419;28;20064;-62
2021/08/08 03:55:10;;;;;;;15.25;4.05;;;;;;;17.45;72.28;100341.41;5051545;28;20442;-62
2021/08/08 03:57:39;;;;;;;17.77;3.47;;;;;;;17.34;71.90;100345.66;5050970;28;20099;-60
2021/08/08 04:00:13;;;;;;;12.57;3.33;;;;;;;17.32;72.83;100341.56;5051148;28;20036;-63
2021/08/08 04:02:46;;;;;;;11.95;3.28;;;;;;;17.31;72.05;100349.03;5051080;28;20095;-59
2021/08/08 04:05:19;;;;;;;11.60;3.20;;;;;;;17.32;72.66;100352.59;5051105;28;20049;-62
2021/08/08 04:07:48;;;;;;;15.50;4.35;;;;;;;17.27;72.41;100361.84;5051260;28;20049;-62
2021/08/08 04:10:17;;;;;;;13.23;3.00;;;;;;;17.23;72.29;100358.91;5051139;28;20041;-62
2021/08/08 04:12:45;;;;;;;14.13;4.00;;;;;;;17.19;72.10;100351.63;5050834;28;20072;-61
2021/08/08 04:15:17;;;;;;;9.93;3.28;;;;;;;17.26;72.97;100357.47;5048151;28;20037;-62
2021/08/08 04:17:44;;;;;;;15.30;4.13;;;;;;;17.26;71.77;100357.47;5030940;28;20496;-62
2021/08/08 04:20:12;;;;;;;9.80;2.63;;;;;;;17.24;72.29;100363.31;5046271;28;20098;-62
2021/08/08 04:22:40;;;;;;;15.73;3.63;;;;;;;17.24;71.68;100363.31;5052407;28;20051;-63
2021/08/08 04:25:08;;;;;;;15.60;3.55;;;;;;;17.19;71.59;100371.72;5052224;28;20041;-62
2021/08/08 04:27:35;;;;;;;14.50;3.90;;;;;;;17.21;71.57;100374.16;5050771;28;20075;-62
2021/08/08 04:30:04;;;;;;;10.88;3.55;;;;;;;17.19;71.91;100381.91;5050715;28;20049;-62
2021/08/08 04:32:33;;;;;;;10.82;3.60;;;;;;;17.24;72.28;100385.34;5050733;28;20040;-63
2021/08/08 04:35:02;;;;;;;13.27;3.70;;;;;;;17.24;71.61;100379.00;5051947;28;20098;-62
2021/08/08 04:37:31;;;;;;;12.27;3.60;;;;;;;17.31;71.56;100384.84;5050955;28;20056;-62
2021/08/08 04:40:00;;;;;;;16.23;3.88;;;;;;;17.21;71.66;100393.41;5050532;28;20488;-62
2021/08/08 04:42:30;;;;;;;14.07;4.05;;;;;;;17.18;71.61;100383.06;5050376;28;20442;-62
2021/08/08 04:44:58;;;;;;;10.07;3.13;;;;;;;17.19;71.90;100381.91;5050882;28;20040;-62
2021/08/08 04:47:25;;;;;;;12.00;3.20;;;;;;;17.23;72.53;100385.66;5051522;28;20077;-62
2021/08/08 04:49:53;;;;;;;13.13;3.45;;;;;;;17.21;71.79;100391.47;5051249;28;20052;-62
2021/08/08 04:52:20;;;;;;;17.67;3.83;;;;;;;17.21;71.54;100396.19;5052136;28;20033;-62
2021/08/08 04:54:48;;;;;;;17.10;3.83;;;;;;;17.22;72.14;100401.38;5050919;28;20099;-62
2021/08/08 04:57:16;;;;;;;11.88;3.22;;;;;;;17.24;71.91;100395.53;5050719;28;20529;-62
2021/08/08 04:59:43;;;;;;;14.93;3.75;;;;;;;17.19;71.95;100403.94;5050876;28;20420;-62
2021/08/08 05:02:11;;;;;;;12.38;3.22;;;;;;;17.21;72.25;100401.69;5051266;28;20558;-62
2021/08/08 05:04:39;;;;;;;17.17;4.13;;;;;;;17.23;71.26;100410.44;5051432;28;20033;-62
2021/08/08 05:07:06;;;;;;;12.68;3.35;;;;;;;17.17;71.24;100419.97;5050794;28;20052;-63
2021/08/08 05:09:35;;;;;;;15.63;3.90;;;;;;;17.14;71.43;100428.88;5050544;28;20041;-63
2021/08/08 05:12:02;;;;;;;20.88;4.70;;;;;;;17.12;71.39;100425.63;5050215;28;20029;-63
2021/08/08 05:14:34;;;;;;;13.10;3.45;;;;;;;17.11;71.37;100424.03;5050269;28;20473;-62
2021/08/08 05:17:02;;;;;;;9.68;2.80;;;;;;;17.24;73.54;100434.06;5032193;28;20452;-62
2021/08/08 05:19:30;;;;;;;18.80;4.88;;;;;;;17.19;71.20;100431.47;5033381;28;20043;-62
2021/08/08 05:21:58;;;;;;;12.98;3.50;;;;;;;17.23;71.39;100433.25;5041342;28;20446;-61
2021/08/08 05:24:27;;;;;;;17.23;3.97;;;;;;;17.17;71.38;100442.00;5038540;28;20045;-62
2021/08/08 05:26:56;;;;;;;18.58;5.00;;;;;;;17.14;71.38;100445.41;5035541;28;20125;-61
2021/08/08 05:29:25;;;;;;;13.77;4.22;;;;;;;17.07;71.10;100443.09;5037887;28;20037;-61
2021/08/08 05:31:52;;;;;;;14.30;3.47;;;;;;;17.23;71.65;100457.25;5046961;28;20381;-61
2021/08/08 05:34:20;;;;;;;18.98;3.95;;;;;;;17.22;71.14;100458.34;5053439;28;20044;-61
2021/08/08 05:36:48;;;;;;;15.70;3.72;;;;;;;17.24;71.68;100458.84;5041803;28;20389;-62
2021/08/08 05:39:15;;;;;;;14.88;3.70;;;;;;;17.30;70.95;100459.53;5044561;28;20332;-62
2021/08/08 05:41:44;;;;;;;12.93;3.60;;;;;;;17.20;72.40;100457.88;5042337;28;20056;-61
2021/08/08 05:44:11;;;;;;;8.40;2.92;;;;;;;17.41;73.53;100458.06;5040241;28;20041;-61
2021/08/08 05:46:39;;;;;;;13.50;3.50;;;;;;;17.56;71.27;100459.53;5044029;28;20555;-61
2021/08/08 05:49:08;;;;;;;14.50;3.50;;;;;;;17.38;70.66;100455.97;5038016;28;20052;-62
2021/08/08 05:51:37;;;;;;;12.93;3.28;;;;;;;17.39;73.06;100463.91;5039433;28;20136;-62
2021/08/08 05:54:04;;;;;;;10.45;3.22;;;;;;;17.40;72.06;100470.22;5045255;28;20049;-61
2021/08/08 05:56:33;;;;;;;14.40;3.75;;;;;;;17.45;71.72;100472.81;5040057;28;20071;-61
2021/08/08 05:59:01;;;;;;;15.70;3.30;;;;;;;17.50;70.60;100469.09;5040078;28;20056;-62
2021/08/08 06:01:28;;;;;;;18.70;4.32;;;;;;;17.31;70.37;100478.47;5044701;28;20052;-61
2021/08/08 06:03:56;;;;;;;21.08;5.35;;;;;;;17.33;70.42;100487.22;5047190;28;20045;-61
2021/08/08 06:06:24;;;;;;;7.63;2.85;;;;;;;17.40;71.42;100476.53;5039054;28;20510;-62
2021/08/08 06:08:51;;;;;;;10.32;2.72;;;;;;;17.48;72.72;100482.38;5045778;28;20407;-63
2021/08/08 06:11:19;;;;;;;11.68;3.22;;;;;;;17.59;70.56;100483.69;5036749;28;20048;-63
2021/08/08 06:13:47;;;;;;;18.95;3.78;;;;;;;17.57;71.01;100483.19;5045654;28;20049;-64
2021/08/08 06:16:15;;;;;;;13.63;3.40;;;;;;;17.58;69.88;100498.56;5048703;28;20048;-62
2021/08/08 06:18:43;;;;;;;10.90;3.33;;;;;;;17.53;71.27;100496.78;5052827;28;20124;-63
2021/08/08 06:21:11;;;;;;;13.23;3.13;;;;;;;17.66;70.28;100503.28;5052502;28;20043;-62
2021/08/08 06:23:46;;;;;;;20.05;4.00;;;;;;;17.58;68.90;100515.09;5032712;28;20355;-62
2021/08/08 06:26:13;;;;;;;15.45;3.60;;;;;;;17.53;71.12;100507.00;5041929;28;20083;-63
2021/08/08 06:28:41;;;;;;;13.32;3.50;;;;;;;17.68;71.60;100514.81;5037039;28;20047;-61
2021/08/08 06:31:09;;;;;;;15.95;4.18;;;;;;;17.50;69.36;100521.44;5032634;28;20049;-62
2021/08/08 06:33:36;;;;;;;12.13;3.90;;;;;;;17.44;69.77;100529.84;5033612;28;20045;-62
2021/08/08 06:36:06;;;;;;;13.32;3.97;;;;;;;17.51;69.06;100542.31;5035700;28;20120;-61
2021/08/08 06:38:38;;;;;;;18.63;4.18;;;;;;;17.59;69.53;100539.59;5045743;28;20053;-62
2021/08/08 06:41:06;;;;;;;15.82;4.47;;;;;;;17.68;69.70;100547.88;5052116;28;20094;-61
2021/08/08 06:43:33;;;;;;;11.73;3.70;;;;;;;17.45;69.37;100539.72;5051697;28;20071;-61
2021/08/08 06:46:01;;;;;;;11.32;3.50;;;;;;;17.58;72.12;100546.25;5052454;28;20132;-61
2021/08/08 06:48:34;;;;;;;14.70;3.92;;;;;;;17.46;69.89;100546.88;5036011;28;20083;-62
2021/08/08 06:51:02;;;;;;;13.60;3.80;;;;;;;17.45;70.59;100547.97;5052290;28;20075;-62
2021/08/08 06:53:30;;;;;;;9.40;3.03;;;;;;;17.68;70.92;100547.88;5033738;28;20037;-61
2021/08/08 06:56:01;;;;;;;17.02;3.97;;;;;;;17.59;70.51;100549.81;5046474;28;20368;-61
2021/08/08 06:58:31;;;;;;;14.10;4.40;;;;;;;17.67;67.99;100558.06;5031820;28;20057;-61
2021/08/08 07:00:59;;;;;;;12.57;3.72;;;;;;;17.83;68.09;100557.63;5031794;28;20041;-56
2021/08/08 07:03:26;;;;;;;11.45;3.33;;;;;;;17.57;67.46;100561.13;5033561;28;20041;-59
2021/08/08 07:05:54;;;;;;;9.45;2.75;;;;;;;17.69;69.52;100563.25;5033521;28;20084;-61
2021/08/08 07:08:22;;;;;;;17.85;4.50;;;;;;;17.62;67.97;100562.94;5035580;28;20045;-61
2021/08/08 07:10:50;;;;;;;18.70;4.57;;;;;;;17.61;66.84;100569.59;5023355;28;20042;-63
2021/08/08 07:13:18;;;;;;;13.95;3.92;;;;;;;17.36;67.18;100563.66;5037289;28;20045;-62
2021/08/08 07:15:47;;;;;;;11.80;3.63;;;;;;;17.31;68.16;100563.03;5040780;28;20153;-62
2021/08/08 07:18:15;;;;;;;16.08;4.45;;;;;;;17.25;68.01;100562.38;5032231;28;20045;-63
2021/08/08 07:20:43;;;;;;;15.80;3.90;;;;;;;17.27;68.54;100568.38;5034454;28;20151;-64
2021/08/08 07:23:11;;;;;;;17.13;4.30;;;;;;;17.31;68.24;100572.09;5043773;28;20049;-63
2021/08/08 07:25:38;;;;;;;14.57;4.03;;;;;;;17.34;67.22;100581.66;5049259;28;20048;-62
2021/08/08 07:28:06;;;;;;;12.10;3.67;;;;;;;17.32;67.82;100584.75;5031430;28;20053;-63
2021/08/08 07:30:34;;;;;;;17.15;4.00;;;;;;;17.25;66.54;100578.88;5034223;28;21028;-62
2021/08/08 07:33:02;;;;;;;21.17;5.78;;;;;;;17.66;69.31;100574.94;5038821;28;20033;-62
2021/08/08 07:35:30;;;;;;;29.55;7.72;;;;;;;17.57;66.14;100585.13;5037534;28;20045;-62
2021/08/08 07:37:59;;;;;;;22.17;5.65;;;;;;;17.50;66.15;100582.03;5039779;28;20105;-62
2021/08/08 07:40:28;;;;;;;30.40;8.48;;;;;;;17.59;69.04;100571.84;5045266;28;20110;-62
2021/08/08 07:43:00;;;;;;;31.33;7.75;;;;;;;17.68;66.98;100587.25;5038417;28;20048;-62
2021/08/08 07:45:29;;;;;;;17.13;4.32;;;;;;;17.58;65.41;100581.22;5038239;28;20061;-63
2021/08/08 07:47:57;;;;;;;22.17;6.50;;;;;;;17.70;68.15;100584.16;5044064;28;20033;-63
2021/08/08 07:50:24;;;;;;;27.92;6.72;;;;;;;17.93;66.50;100586.81;5039034;28;20030;-63
2021/08/08 07:52:53;;;;;;;19.27;4.55;;;;;;;17.87;62.90;100589.75;5041878;28;20041;-63
2021/08/08 07:55:21;;;;;;;35.70;10.27;;;;;;;17.87;64.67;100587.00;5044296;28;20377;-63
2021/08/08 07:57:49;;;;;;;21.23;6.05;;;;;;;17.61;63.97;100597.13;5041138;28;20073;-61
2021/08/08 08:00:17;;;;;;;36.00;9.10;;;;;;;18.06;68.36;100599.63;5040448;28;20072;-63
2021/08/08 08:02:45;;;;;;;38.05;12.30;;;;;;;18.28;68.81;100605.00;5044073;28;20069;-63
2021/08/08 08:05:17;;;;;;;19.35;5.47;;;;;;;18.19;65.22;100609.69;5031282;28;20095;-63
2021/08/08 08:07:46;;;;;;;14.43;3.92;;;;;;;17.85;65.75;100611.31;5043181;28;20037;-63
2021/08/08 08:10:14;;;;;;;27.83;7.25;;;;;;;18.03;66.51;100622.34;5039342;28;20069;-63
2021/08/08 08:12:41;;;;;;;19.45;4.82;;;;;;;18.01;63.41;100616.34;5037500;28;20045;-63
2021/08/08 08:15:09;;;;;;;20.70;5.22;;;;;;;17.74;64.09;100618.22;5039358;28;20123;-63
2021/08/08 08:17:37;;;;;;;21.02;5.88;;;;;;;17.70;65.64;100619.19;5031169;28;20053;-62
2021/08/08 08:20:05;;;;;;;18.23;5.57;;;;;;;17.63;65.48;100616.88;5044814;28;20127;-60
2021/08/08 08:22:33;;;;;;;24.08;6.20;;;;;;;17.80;66.26;100618.91;5031033;28;20069;-63
2021/08/08 08:25:01;;;;;;;18.67;5.20;;;;;;;17.83;65.41;100632.06;5043611;28;20037;-59
2021/08/08 08:27:28;;;;;;;32.70;8.52;;;;;;;18.03;68.00;100625.09;5050775;28;20041;-61
2021/08/08 08:29:57;;;;;;;24.65;7.18;;;;;;;18.05;66.34;100626.41;5051582;28;20534;-58
2021/08/08 08:32:25;;;;;;;22.02;6.55;;;;;;;18.28;65.98;100634.53;5050518;28;20086;-62
2021/08/08 08:34:52;;;;;;;20.13;6.72;;;;;;;18.07;64.83;100628.84;5050852;28;20041;-60
2021/08/08 08:37:20;;;;;;;16.95;4.35;;;;;;;18.10;66.65;100641.97;5050645;28;20457;-61
2021/08/08 08:39:48;;;;;;;25.05;7.15;;;;;;;18.04;66.74;100638.56;5050108;28;20053;-61
2021/08/08 08:42:19;;;;;;;18.40;5.45;;;;;;;17.88;64.89;100642.91;5051646;28;20049;-60
2021/08/08 08:44:46;;;;;;;15.65;4.43;;;;;;;17.95;64.18;100642.44;5031096;28;20132;-62
2021/08/08 08:47:14;;;;;;;18.55;5.55;;;;;;;17.96;70.30;100641.31;5031094;28;20491;-58
2021/08/08 08:49:47;;;;;;;19.15;5.15;;;;;;;18.21;66.71;100648.81;5050850;28;20132;-60
2021/08/08 08:52:23;;;;;;;14.77;4.15;;;;;;;18.17;68.51;100647.00;5050859;28;20103;-58
2021/08/08 08:54:52;;;;;;;16.38;5.00;;;;;;;18.23;65.18;100649.28;5017900;28;20037;-58
2021/08/08 08:57:20;;;;;;;17.15;4.50;;;;;;;18.16;64.70;100665.50;5031717;28;20073;-61
2021/08/08 08:59:53;;;;;;;14.90;5.07;;;;;;;18.21;63.47;100664.53;4998864;28;20512;-59
2021/08/08 09:02:21;;;;;;;16.80;4.60;;;;;;;18.50;68.99;100666.66;5014565;28;20124;-58
2021/08/08 09:04:50;;;;;;;16.67;4.57;;;;;;;18.65;66.65;100668.91;5032278;28;20509;-59
2021/08/08 09:07:17;;;;;;;15.27;4.55;;;;;;;18.56;63.63;100668.09;5035538;28;20045;-61
2021/08/08 09:09:45;;;;;;;12.80;4.40;;;;;;;18.43;65.29;100674.59;5035267;28;20046;-58
2021/08/08 09:12:24;;;;;;;13.63;4.32;;;;;;;18.50;66.43;100677.69;5035554;28;20053;-61
2021/08/08 09:15:01;;;;;;;12.23;4.65;;;;;;;18.68;67.55;100670.19;5051823;28;20561;-62
2021/08/08 09:17:36;;;;;;;13.52;4.30;;;;;;;18.58;64.83;100679.63;5054436;28;20040;-62
2021/08/08 09:20:09;;;;;;;14.05;4.32;;;;;;;18.55;62.52;100691.31;5053998;28;20102;-62
2021/08/08 09:22:41;;;;;;;11.23;4.00;;;;;;;18.57;64.77;100691.81;5054054;28;20041;-62
2021/08/08 09:25:19;;;;;;;14.35;3.67;;;;;;;18.53;61.97;100685.31;5055212;28;20049;-62
2021/08/08 09:27:47;;;;;;;13.20;3.80;;;;;;;18.43;62.02;100696.69;5053915;28;20558;-62
2021/08/08 09:30:21;;;;;;;13.32;4.13;;;;;;;18.47;63.53;100711.44;5053682;28;20049;-57
2021/08/08 09:33:03;;;;;;;10.07;3.20;;;;;;;18.54;60.66;100711.75;5054192;28;20048;-62
2021/08/08 09:35:34;;;;;;;14.75;4.20;;;;;;;18.56;60.84;100720.53;5054843;28;20040;-62
2021/08/08 09:38:07;;;;;;;15.10;3.28;;;;;;;18.50;60.51;100727.34;5053396;28;20033;-62
2021/08/08 09:40:37;;;;;;;12.77;3.58;;;;;;;18.33;60.58;100728.16;5054756;28;20056;-62
2021/08/08 09:43:06;;;;;;;10.38;3.55;;;;;;;18.44;64.93;100728.63;5055122;28;20044;-61
2021/08/08 09:45:44;;;;;;;11.07;3.50;;;;;;;18.38;61.67;100735.47;5053722;28;20091;-61
2021/08/08 09:48:13;;;;;;;10.43;3.50;;;;;;;18.25;61.28;100737.22;5054973;28;20052;-62
2021/08/08 09:50:42;;;;;;;15.27;4.05;;;;;;;18.24;60.92;100736.41;5054418;28;20465;-61
2021/08/08 09:53:18;;;;;;;11.13;3.55;;;;;;;18.21;60.10;100737.06;5054333;28;20060;-62
2021/08/08 09:55:47;;;;;;;10.05;3.38;;;;;;;18.21;61.97;100747.28;5054682;28;20048;-61
2021/08/08 09:58:22;;;;;;;12.57;4.00;;;;;;;18.40;65.01;100742.28;5054543;28;20037;-62
2021/08/08 10:00:51;;;;;;;13.47;3.33;;;;;;;18.51;61.68;100748.28;5054430;28;20468;-63
2021/08/08 10:03:19;;;;;;;10.55;3.17;;;;;;;18.40;60.54;100747.78;5053602;28;20055;-62
2021/08/08 10:05:47;;;;;;;9.55;3.42;;;;;;;18.88;63.19;100759.84;5054544;28;20045;-62
2021/08/08 10:08:21;;;;;;;14.20;3.65;;;;;;;18.68;59.21;100758.50;5054392;28;20068;-62
2021/08/08 10:10:52;;;;;;;10.55;3.25;;;;;;;18.61;64.08;100763.69;5054472;28;20048;-62
2021/08/08 10:13:36;;;;;;;7.80;2.67;;;;;;;18.78;64.45;100760.97;5054453;28;20053;-62
2021/08/08 10:16:09;;;;;;;15.85;4.28;;;;;;;18.58;64.83;100767.13;5043319;28;20048;-62
2021/08/08 10:18:40;;;;;;;13.57;3.67;;;;;;;18.38;60.14;100771.31;5034522;28;20049;-62
2021/08/08 10:21:10;;;;;;;9.93;3.10;;;;;;;18.24;61.79;100769.50;5033933;28;20041;-62
2021/08/08 10:23:39;;;;;;;14.75;3.67;;;;;;;18.25;60.79;100767.53;5034427;28;20052;-62
2021/08/08 10:26:08;;;;;;;9.90;3.13;;;;;;;18.16;62.96;100767.53;5034581;28;20041;-61
2021/08/08 10:28:36;;;;;;;15.15;3.63;;;;;;;18.28;62.78;100764.16;5033002;28;20099;-62
2021/08/08 10:31:04;;;;;;;13.80;3.97;;;;;;;18.21;61.51;100775.66;5032998;28;20045;-62
2021/08/08 10:33:49;;;;;;;10.40;3.33;;;;;;;18.26;66.59;100777.47;5034202;28;20124;-63
2021/08/08 10:36:17;;;;;;;13.75;3.53;;;;;;;18.34;62.45;100776.66;5041483;28;20098;-62
2021/08/08 10:38:45;;;;;;;8.20;2.55;;;;;;;18.36;65.43;100777.16;5052837;28;20399;-60
2021/08/08 10:41:12;;;;;;;9.05;2.65;;;;;;;18.87;63.84;100785.81;5054112;28;20048;-58
2021/08/08 10:43:44;;;;;;;10.30;3.13;;;;;;;18.85;60.78;100777.06;5053589;28;20048;-58
2021/08/08 10:46:14;;;;;;;12.45;3.38;;;;;;;18.73;60.52;100785.94;5053849;28;20045;-59
2021/08/08 10:48:43;;;;;;;9.60;2.95;;;;;;;18.86;61.67;100784.22;5053637;28;20120;-59
2021/08/08 10:51:22;;;;;;;10.10;3.15;;;;;;;18.78;63.62;100787.78;5051866;28;20071;-61
2021/08/08 10:54:06;;;;;;;10.57;3.28;;;;;;;18.83;63.71;100790.38;5052529;28;20503;-62
2021/08/08 10:56:47;;;;;;;11.90;3.38;;;;;;;18.65;60.01;100784.00;5033758;28;20392;-62
2021/08/08 10:59:22;;;;;;;9.60;3.22;;;;;;;18.72;60.52;100787.91;5032307;28;20049;-59
2021/08/08 11:02:09;;;;;;;12.55;3.45;;;;;;;18.58;62.68;100792.75;5033398;28;20034;-62
2021/08/08 11:04:37;;;;;;;6.47;2.65;;;;;;;18.72;62.60;100790.66;5032512;28;20444;-62
2021/08/08 11:07:06;;;;;;;6.72;2.33;;;;;;;18.96;64.07;100788.59;5033812;28;20073;-60
2021/08/08 11:09:38;;;;;;;8.18;3.10;;;;;;;19.15;62.26;100787.13;5032328;28;20128;-62
2021/08/08 11:12:06;;;;;;;11.32;3.70;;;;;;;19.13;61.12;100783.84;5034072;28;20052;-62
2021/08/08 11:14:33;;;;;;;8.35;2.97;;;;;;;19.19;63.49;100787.25;5045084;28;20048;-61
2021/08/08 11:17:03;;;;;;;5.70;2.47;;;;;;;19.16;63.38;100788.72;5033079;28;20037;-61
2021/08/08 11:19:35;;;;;;;10.48;3.17;;;;;;;19.19;60.86;100787.25;5032366;28;20046;-59
2021/08/08 11:22:15;;;;;;;7.82;3.10;;;;;;;19.30;63.38;100796.03;5031461;28;20038;-59
2021/08/08 11:25:06;;;;;;;10.15;2.97;;;;;;;19.34;58.43;100777.66;5041071;28;20052;-58
2021/08/08 11:27:36;;;;;;;10.07;2.90;;;;;;;19.12;59.66;100785.00;5050037;28;20091;-59
2021/08/08 11:30:07;;;;;;;11.10;3.20;;;;;;;19.05;60.98;100784.69;5052799;28;20049;-61